Time;durP1;ratioP1;P1;durP2;ratioP2;P2;SDS_P1;SDS_P2;PMS_P1;PMS_P2;Temp;Humidity;BMP_temperature;BMP_pressure;BME280_temperature;BME280_humidity;BME280_pressure;Samples;Min_cycle;Max_cycle;Signal;HPM_P1;HPM_P2
2024/03/29 00:00:44;;;;;;;;;;;;;;;4.35;100.00;97560.94;4917701;29;19924;-85
2024/03/29 00:03:09;;;;;;;;;;;;;;;4.37;100.00;97543.31;4900530;29;19998;-81
2024/03/29 00:05:35;;;;;;;;;;;;;;;4.25;100.00;97541.38;4918255;29;19927;-84
2024/03/29 00:08:02;;;;;;;;;;;;;;;4.75;100.00;97543.03;4920922;29;19923;-91
2024/03/29 00:10:28;;;;;;;;;;;;;;;5.31;100.00;97545.19;4901675;29;19965;-85
2024/03/29 00:12:53;;;;;;;;;;;;;;;5.61;100.00;97551.31;4899487;29;19962;-82
2024/03/29 00:15:18;;;;;;;;;;;;;;;5.83;100.00;97537.75;4918178;29;20352;-85
2024/03/29 00:17:44;;;;;;;;;;;;;;;5.99;100.00;97536.88;4900928;29;19923;-85
2024/03/29 00:20:17;;;;;;;;;;;;;;;6.11;100.00;97544.03;4919052;29;19934;-82
2024/03/29 00:22:42;;;;;;;;;;;;;;;6.41;100.00;97524.69;4902180;29;20343;-79
2024/03/29 00:25:08;;;;;;;;;;;;;;;6.75;100.00;97522.59;4917605;29;19924;-88
2024/03/29 00:27:33;;;;;;;;;;;;;;;6.58;100.00;97521.00;4917157;29;20016;-85
2024/03/29 00:29:59;;;;;;;;;;;;;;;6.60;100.00;97516.47;4917467;29;19951;-87
2024/03/29 00:32:25;;;;;;;;;;;;;;;6.64;100.00;97531.16;4917663;29;20027;-85
2024/03/29 00:34:52;;;;;;;;;;;;;;;6.69;100.00;97520.34;4917605;29;19942;-81
2024/03/29 00:37:17;;;;;;;;;;;;;;;6.74;100.00;97515.63;4916876;29;19927;-87
2024/03/29 00:39:42;;;;;;;;;;;;;;;6.79;100.00;97512.69;4917759;29;19942;-82
2024/03/29 00:42:12;;;;;;;;;;;;;;;6.84;100.00;97497.44;4916698;29;20042;-83
2024/03/29 00:44:40;;;;;;;;;;;;;;;6.88;100.00;97494.53;4916747;29;19981;-86
2024/03/29 00:47:05;;;;;;;;;;;;;;;6.91;100.00;97486.44;4919216;29;19923;-88
2024/03/29 00:49:31;;;;;;;;;;;;;;;6.96;100.00;97485.31;4917929;29;19954;-92
2024/03/29 00:51:56;;;;;;;;;;;;;;;6.98;100.00;97497.41;4917776;29;20268;-89
2024/03/29 00:54:23;;;;;;;;;;;;;;;7.03;100.00;97503.22;4917598;29;19964;-87
2024/03/29 00:56:49;;;;;;;;;;;;;;;7.09;100.00;97515.97;4916809;29;19930;-86
2024/03/29 00:59:14;;;;;;;;;;;;;;;7.11;100.00;97515.88;4917833;29;19931;-83
2024/03/29 01:01:39;;;;;;;;;;;;;;;7.12;100.00;97507.06;4918307;29;19927;-83
2024/03/29 01:04:04;;;;;;;;;;;;;;;7.17;100.00;97509.41;4900564;29;20323;-83
2024/03/29 01:06:29;;;;;;;;;;;;;;;7.21;100.00;97498.56;4917905;29;19930;-81
2024/03/29 01:08:55;;;;;;;;;;;;;;;7.24;100.00;97497.50;4917554;29;19942;-82
2024/03/29 01:11:20;;;;;;;;;;;;;;;7.26;100.00;97488.56;4917594;29;19923;-81
2024/03/29 01:13:45;;;;;;;;;;;;;;;7.28;100.00;97484.03;4915857;29;19961;-81
2024/03/29 01:16:10;;;;;;;;;;;;;;;7.31;100.00;97483.00;4917239;29;19979;-81
2024/03/29 01:18:36;;;;;;;;;;;;;;;7.37;100.00;97460.66;4916673;29;19970;-84
2024/03/29 01:21:01;;;;;;;;;;;;;;;7.36;100.00;97444.00;4917224;29;20397;-83
2024/03/29 01:23:26;;;;;;;;;;;;;;;7.39;100.00;97449.06;4915474;29;19931;-82
2024/03/29 01:25:51;;;;;;;;;;;;;;;7.41;100.00;97447.16;4916800;29;19967;-81
2024/03/29 08:14:01;;;;;;;;;;;;;;;4.29;100.00;97624.16;5565060;23;19935;-82
2024/03/29 08:16:27;;;;;;;;;;;;;;;4.27;100.00;97626.03;4918370;29;19923;-84
2024/03/29 08:18:52;;;;;;;;;;;;;;;4.26;100.00;97621.72;4918680;29;20393;-81
2024/03/29 08:21:18;;;;;;;;;;;;;;;4.23;100.00;97622.72;4918343;29;19974;-82
2024/03/29 08:23:47;;;;;;;;;;;;;;;4.22;100.00;97628.06;4918539;29;20466;-81
2024/03/29 08:26:12;;;;;;;;;;;;;;;4.21;100.00;97623.72;4901203;29;20336;-82
2024/03/29 08:28:38;;;;;;;;;;;;;;;4.12;100.00;97641.63;4917382;29;19969;-81
2024/03/29 08:31:05;;;;;;;;;;;;;;;4.20;100.00;97649.09;4918396;29;20378;-81
2024/03/29 08:33:31;;;;;;;;;;;;;;;4.13;100.00;97645.09;4917756;29;19954;-81
2024/03/29 08:35:56;;;;;;;;;;;;;;;4.14;100.00;97645.00;4901349;29;19989;-80
2024/03/29 08:38:22;;;;;;;;;;;;;;;4.11;100.00;97645.16;4901280;29;19923;-81
2024/03/29 08:40:48;;;;;;;;;;;;;;;4.08;100.00;97655.78;4918129;29;20014;-80
2024/03/29 08:43:13;;;;;;;;;;;;;;;4.04;100.00;97663.88;4899669;29;20053;-82
2024/03/29 08:45:40;;;;;;;;;;;;;;;3.98;100.00;97654.56;4918178;29;19926;-83
2024/03/29 08:48:08;;;;;;;;;;;;;;;4.02;100.00;97643.03;4917942;29;20033;-83
2024/03/29 08:50:35;;;;;;;;;;;;;;;4.04;100.00;97656.03;4917363;29;20278;-83
2024/03/29 08:53:00;;;;;;;;;;;;;;;4.85;100.00;97651.84;4917865;29;20427;-83
2024/03/29 08:55:26;;;;;;;;;;;;;;;5.37;100.00;97655.16;4900917;29;20021;-83
2024/03/29 08:57:51;;;;;;;;;;;;;;;5.66;100.00;97665.81;4916669;29;19966;-78
2024/03/29 09:00:16;;;;;;;;;;;;;;;5.87;100.00;97663.72;4917330;29;19919;-87
2024/03/29 09:02:41;;;;;;;;;;;;;;;6.02;100.00;97677.84;4917870;29;19991;-82
2024/03/29 09:05:07;;;;;;;;;;;;;;;6.14;100.00;97688.47;4917780;29;19974;-82
2024/03/29 09:07:32;;;;;;;;;;;;;;;6.26;100.00;97697.44;4917632;29;20326;-82
2024/03/29 09:09:57;;;;;;;;;;;;;;;6.35;100.00;97688.13;4917658;29;20329;-83
2024/03/29 09:12:23;;;;;;;;;;;;;;;6.45;100.00;97693.72;4899594;29;19958;-82
2024/03/29 09:14:48;;;;;;;;;;;;;;;6.52;100.00;97700.28;4899170;29;19992;-82
2024/03/29 09:17:13;;;;;;;;;;;;;;;6.59;100.00;97701.63;4899734;29;20351;-82
2024/03/29 09:19:38;;;;;;;;;;;;;;;6.63;100.00;97703.13;4917344;29;19977;-81
2024/03/29 09:22:04;;;;;;;;;;;;;;;6.70;100.00;97693.94;4917577;29;19923;-81
2024/03/29 09:24:29;;;;;;;;;;;;;;;6.77;100.00;97688.31;4917598;29;19923;-81
2024/03/29 09:26:54;;;;;;;;;;;;;;;6.84;100.00;97687.81;4900295;29;19923;-81
2024/03/29 09:29:20;;;;;;;;;;;;;;;6.89;100.00;97701.56;4915999;29;19919;-83
2024/03/29 09:31:46;;;;;;;;;;;;;;;6.94;100.00;97700.44;4916532;29;19942;-83
2024/03/29 09:34:11;;;;;;;;;;;;;;;6.98;100.00;97708.06;4917042;29;20367;-83
2024/03/29 09:36:36;;;;;;;;;;;;;;;7.01;100.00;97702.59;4917025;29;19930;-83
2024/03/29 09:39:04;;;;;;;;;;;;;;;7.05;100.00;97697.97;4917135;29;19926;-83
2024/03/29 09:41:30;;;;;;;;;;;;;;;7.11;100.00;97702.88;4916789;29;20374;-83
2024/03/29 09:43:57;;;;;;;;;;;;;;;7.15;100.00;97695.63;4914894;29;19933;-82
2024/03/29 09:46:23;;;;;;;;;;;;;;;7.21;100.00;97676.81;4916874;29;20010;-80
2024/03/29 09:48:49;;;;;;;;;;;;;;;7.24;100.00;97680.13;4916944;29;19930;-82
2024/03/29 09:51:15;;;;;;;;;;;;;;;7.27;100.00;97676.41;4917007;29;19923;-82
2024/03/29 09:53:41;;;;;;;;;;;;;;;7.31;100.00;97682.34;4916769;29;20279;-82
2024/03/29 09:56:07;;;;;;;;;;;;;;;7.34;100.00;97677.75;4915899;29;19919;-82
2024/03/29 09:58:33;;;;;;;;;;;;;;;7.37;100.00;97680.19;4915437;29;19975;-82
2024/03/29 10:00:58;;;;;;;;;;;;;;;7.40;100.00;97674.72;4916961;29;20434;-82
2024/03/29 10:03:30;;;;;;;;;;;;;;;7.41;100.00;97673.75;4916561;29;19926;-83
2024/03/29 10:05:57;;;;;;;;;;;;;;;7.46;100.00;97671.66;4916788;29;20002;-84
2024/03/29 10:08:22;;;;;;;;;;;;;;;7.52;100.00;97665.19;4916131;29;19923;-83
2024/03/29 10:10:48;;;;;;;;;;;;;;;7.55;100.00;97679.97;4899205;29;19971;-83
2024/03/29 10:13:14;;;;;;;;;;;;;;;7.57;100.00;97694.72;4915257;29;20349;-83
2024/03/29 10:15:43;;;;;;;;;;;;;;;7.61;100.00;97698.00;4916354;29;19927;-83
2024/03/29 13:58:04;;;;;;;;;;;;;;;6.48;100.00;97772.47;4973464;23;19931;-87
2024/03/29 14:00:30;;;;;;;;;;;;;;;6.02;100.00;97785.63;4907546;29;19923;-83
2024/03/29 14:02:56;;;;;;;;;;;;;;;5.77;100.00;97800.06;4890152;29;19926;-87
2024/03/29 14:05:24;;;;;;;;;;;;;;;5.57;100.00;97798.56;4906696;29;19923;-88
2024/03/29 14:07:50;;;;;;;;;;;;;;;5.42;100.00;97793.16;4890517;29;19919;-82
2024/03/29 14:10:15;;;;;;;;;;;;;;;5.36;100.00;97801.41;4906648;29;19927;-85
2024/03/29 14:12:40;;;;;;;;;;;;;;;5.23;100.00;97795.94;4905916;29;19983;-86
2024/03/29 14:15:06;;;;;;;;;;;;;;;5.18;100.00;97795.31;4907565;29;20367;-87
2024/03/29 14:17:31;;;;;;;;;;;;;;;5.09;100.00;97785.31;4907186;29;20461;-84
2024/03/29 14:19:57;;;;;;;;;;;;;;;4.98;100.00;97783.25;4907312;29;19924;-86
2024/03/29 14:22:26;;;;;;;;;;;;;;;5.03;100.00;97781.22;4906785;29;19919;-86
2024/03/29 14:24:51;;;;;;;;;;;;;;;4.91;100.00;97784.47;4906948;29;19930;-85
2024/03/29 14:27:16;;;;;;;;;;;;;;;4.89;100.00;97771.44;4906410;29;19923;-87
2024/03/29 14:29:44;;;;;;;;;;;;;;;4.84;100.00;97767.38;4906804;29;20260;-86
2024/03/29 14:32:10;;;;;;;;;;;;;;;4.82;100.00;97762.19;4906642;29;20357;-84
2024/03/29 14:34:39;;;;;;;;;;;;;;;4.82;100.00;97761.34;4906603;29;20003;-84
2024/03/29 14:37:04;;;;;;;;;;;;;;;4.74;100.00;97743.38;4906858;29;19920;-86
2024/03/29 14:39:29;;;;;;;;;;;;;;;4.64;100.00;97734.28;4890259;29;19923;-88
2024/03/29 14:41:58;;;;;;;;;;;;;;;4.63;100.00;97719.50;4888919;29;19919;-82
2024/03/29 14:44:23;;;;;;;;;;;;;;;4.58;100.00;97717.09;4906023;29;19919;-84
2024/03/29 14:46:48;;;;;;;;;;;;;;;4.51;100.00;97728.81;4906710;29;19925;-85
2024/03/29 14:49:14;;;;;;;;;;;;;;;4.55;100.00;97741.69;4906526;29;19920;-82
2024/03/29 14:51:39;;;;;;;;;;;;;;;4.55;100.00;97715.47;4906215;29;19985;-83
2024/03/29 14:54:05;;;;;;;;;;;;;;;4.52;100.00;97707.75;4906580;29;20340;-85
2024/03/29 14:56:31;;;;;;;;;;;;;;;4.50;100.00;97729.72;4905866;29;19951;-83
2024/03/29 14:59:00;;;;;;;;;;;;;;;4.46;100.00;97733.44;4906312;29;19923;-84
2024/03/29 15:01:26;;;;;;;;;;;;;;;4.43;100.00;97744.94;4896903;29;19919;-83
2024/03/29 15:03:52;;;;;;;;;;;;;;;4.40;100.00;97746.88;4906163;29;19958;-87
2024/03/29 15:06:18;;;;;;;;;;;;;;;4.36;100.00;97754.06;4906925;29;19964;-82
2024/03/29 15:08:43;;;;;;;;;;;;;;;4.33;100.00;97749.78;4906012;29;19971;-85
2024/03/29 15:11:08;;;;;;;;;;;;;;;4.34;100.00;97742.75;4905334;29;19927;-86
2024/03/29 15:13:34;;;;;;;;;;;;;;;4.36;100.00;97738.31;4906205;29;19931;-83
2024/03/29 15:16:00;;;;;;;;;;;;;;;4.34;100.00;97741.00;4905429;29;19919;-86
2024/03/29 15:18:25;;;;;;;;;;;;;;;4.35;100.00;97755.81;4906243;29;19988;-88
2024/03/29 15:20:57;;;;;;;;;;;;;;;4.35;100.00;97749.72;4905862;29;19926;-84
2024/03/29 15:23:24;;;;;;;;;;;;;;;4.31;100.00;97761.31;4904334;29;19930;-85
2024/03/29 15:25:50;;;;;;;;;;;;;;;4.29;100.00;97763.13;4905234;29;19967;-86
2024/03/29 15:31:06;;;;;;;;;;;;;;;4.33;100.00;97781.25;4905770;29;19931;-84
2024/03/29 15:33:32;;;;;;;;;;;;;;;4.28;100.00;97791.13;4906598;29;19927;-91
2024/03/29 15:36:00;;;;;;;;;;;;;;;4.24;100.00;97775.63;4889099;29;19923;-90
2024/03/29 15:38:28;;;;;;;;;;;;;;;4.28;100.00;97787.66;4889136;29;19927;-87
2024/03/29 15:40:54;;;;;;;;;;;;;;;4.24;100.00;97778.25;4905976;29;19927;-82
2024/03/29 15:43:19;;;;;;;;;;;;;;;4.26;100.00;97786.88;4887947;29;20294;-83
2024/03/29 15:45:44;;;;;;;;;;;;;;;4.29;100.00;97782.34;4907508;29;19927;-89
2024/03/29 15:48:11;;;;;;;;;;;;;;;4.21;100.00;97794.97;4889550;29;19963;-88
2024/03/29 15:50:37;;;;;;;;;;;;;;;4.27;100.00;97799.06;4889396;29;19927;-88
2024/03/29 15:53:03;;;;;;;;;;;;;;;4.25;100.00;97787.81;4904987;29;20294;-82
2024/03/29 15:55:28;;;;;;;;;;;;;;;7.98;100.00;97782.66;4906335;29;19924;-83
2024/03/29 15:57:54;;;;;;;;;;;;;;;5.03;100.00;97775.97;4888289;29;19954;-83
2024/03/29 16:00:19;;;;;;;;;;;;;;;4.49;100.00;97778.72;4906452;29;19979;-88
2024/03/29 16:02:48;;;;;;;;;;;;;;;4.39;100.00;97793.22;4905549;29;19924;-86
2024/03/29 16:05:13;;;;;;;;;;;;;;;4.34;100.00;97784.72;4888105;29;19923;-83
2024/03/29 16:07:38;;;;;;;;;;;;;;;4.23;100.00;97794.88;4908829;29;19930;-87
2024/03/29 16:10:04;;;;;;;;;;;;;;;4.23;100.00;97810.63;4909242;29;20359;-82
2024/03/29 16:12:29;;;;;;;;;;;;;;;4.21;100.00;97801.97;4891071;29;20006;-85
2024/03/29 16:14:55;;;;;;;;;;;;;;;4.21;100.00;97825.59;4908226;29;20430;-83
2024/03/29 16:17:20;;;;;;;;;;;;;;;4.11;100.00;97818.16;4908768;29;19927;-84
2024/03/29 16:19:45;;;;;;;;;;;;;;;4.17;100.00;97796.06;4908305;29;19920;-85
2024/03/29 16:22:10;;;;;;;;;;;;;;;4.20;100.00;97798.53;4890579;29;20429;-85
2024/03/29 16:24:36;;;;;;;;;;;;;;;4.15;100.00;97804.00;4908442;29;20824;-84
2024/03/29 16:27:01;;;;;;;;;;;;;;;4.16;100.00;97810.94;4907789;29;19930;-83
2024/03/29 16:29:26;;;;;;;;;;;;;;;4.15;100.00;97822.34;4891498;29;19923;-88
2024/03/29 16:31:51;;;;;;;;;;;;;;;4.15;100.00;97824.97;4908381;29;19919;-80
2024/03/29 16:34:17;;;;;;;;;;;;;;;4.14;100.00;97818.00;4908934;29;19934;-79
2024/03/29 16:36:42;;;;;;;;;;;;;;;4.23;100.00;97824.59;4891880;29;20315;-81
2024/03/29 16:39:08;;;;;;;;;;;;;;;4.17;100.00;97804.75;4891541;29;20299;-87
2024/03/29 16:41:33;;;;;;;;;;;;;;;4.14;100.00;97797.03;4890728;29;19987;-80
2024/03/29 16:43:58;;;;;;;;;;;;;;;4.21;100.00;97809.84;4909234;29;19967;-85
2024/03/29 16:46:24;;;;;;;;;;;;;;;4.24;100.00;97807.09;4891032;29;20375;-82
2024/03/29 16:48:52;;;;;;;;;;;;;;;4.23;100.00;97795.75;4908001;29;19923;-88
2024/03/29 16:51:17;;;;;;;;;;;;;;;4.18;100.00;97775.00;4907641;29;19923;-86
2024/03/29 16:53:43;;;;;;;;;;;;;;;4.18;100.00;97772.38;4891164;29;19920;-81
2024/03/29 16:56:08;;;;;;;;;;;;;;;4.12;100.00;97780.53;4907069;29;20300;-84
2024/03/29 16:58:36;;;;;;;;;;;;;;;4.12;100.00;97766.59;4907580;29;19966;-86
2024/03/29 17:01:02;;;;;;;;;;;;;;;4.14;100.00;97770.00;4885461;29;19924;-84
2024/03/29 17:03:27;;;;;;;;;;;;;;;4.10;100.00;97764.06;4885564;29;19924;-87
2024/03/29 17:05:52;;;;;;;;;;;;;;;4.06;100.00;97762.50;4886047;29;19928;-85
2024/03/29 17:08:17;;;;;;;;;;;;;;;4.11;100.00;97757.88;4885762;29;19923;-81
2024/03/29 17:10:43;;;;;;;;;;;;;;;4.12;100.00;97763.97;4886501;29;19928;-87
2024/03/29 17:13:08;;;;;;;;;;;;;;;4.03;100.00;97759.19;4886366;29;19963;-85
2024/03/29 17:15:33;;;;;;;;;;;;;;;3.98;100.00;97756.78;4887915;29;19923;-82
2024/03/29 17:17:59;;;;;;;;;;;;;;;4.42;100.00;97752.88;4884051;29;20043;-90
2024/03/29 17:20:24;;;;;;;;;;;;;;;5.08;100.00;97758.19;4886959;29;19975;-82
2024/03/29 17:22:49;;;;;;;;;;;;;;;5.45;100.00;97750.13;4886310;29;20005;-80
2024/03/29 17:25:14;;;;;;;;;;;;;;;5.69;100.00;97758.44;4877253;29;19927;-85
2024/03/29 17:27:40;;;;;;;;;;;;;;;5.87;100.00;97740.81;4889554;29;20297;-83
2024/03/29 17:30:05;;;;;;;;;;;;;;;6.00;100.00;97739.22;4908174;29;19923;-84
2024/03/29 17:32:31;;;;;;;;;;;;;;;6.15;100.00;97728.75;4890755;29;19922;-81
2024/03/29 17:34:56;;;;;;;;;;;;;;;6.27;100.00;97729.81;4907554;29;19935;-87
2024/03/29 17:37:22;;;;;;;;;;;;;;;6.33;100.00;97735.59;4907706;29;20379;-85
2024/03/29 17:39:47;;;;;;;;;;;;;;;6.41;100.00;97744.81;4906686;29;19923;-81
2024/03/29 17:42:12;;;;;;;;;;;;;;;6.49;100.00;97742.56;4906638;29;20286;-87
2024/03/29 17:50:29;;;;;;;;;;;;;;;6.66;100.00;97758.22;4924377;23;19988;-83
2024/03/29 17:52:55;;;;;;;;;;;;;;;6.71;100.00;97752.69;4860502;29;19924;-83
2024/03/29 17:55:20;;;;;;;;;;;;;;;6.77;100.00;97752.31;4859275;29;20441;-82
2024/03/29 17:57:45;;;;;;;;;;;;;;;6.83;100.00;97761.63;4843751;29;19924;-85
2024/03/29 18:00:12;;;;;;;;;;;;;;;6.87;100.00;97763.97;4860218;29;19920;-84
2024/03/29 18:02:38;;;;;;;;;;;;;;;6.93;100.00;97764.56;4859737;29;20031;-87
2024/03/29 18:05:09;;;;;;;;;;;;;;;6.97;100.00;97745.84;4843332;29;20059;-91
2024/03/29 18:07:37;;;;;;;;;;;;;;;7.00;100.00;97737.75;4859005;29;20034;-89
2024/03/29 18:10:03;;;;;;;;;;;;;;;7.05;100.00;97742.75;4860299;29;19928;-84
2024/03/29 18:12:28;;;;;;;;;;;;;;;7.09;100.00;97739.00;4842901;29;19927;-91
2024/03/29 18:15:01;;;;;;;;;;;;;;;7.13;100.00;97726.47;4859703;29;19931;-84
2024/03/29 18:17:29;;;;;;;;;;;;;;;7.15;100.00;97725.47;4859623;29;19975;-87
2024/03/29 18:19:54;;;;;;;;;;;;;;;7.18;100.00;97719.13;4842139;29;19927;-85
2024/03/29 18:22:19;;;;;;;;;;;;;;;7.22;100.00;97721.50;4859310;29;20252;-85
2024/03/29 18:24:49;;;;;;;;;;;;;;;7.26;100.00;97722.16;4859960;29;19928;-90
2024/03/29 18:27:15;;;;;;;;;;;;;;;7.53;100.00;97724.00;4843313;29;19927;-85
2024/03/29 18:29:42;;;;;;;;;;;;;;;7.41;100.00;97726.47;4859230;29;19928;-88
2024/03/29 18:32:07;;;;;;;;;;;;;;;7.37;100.00;97724.97;4859269;29;19924;-91
2024/03/29 18:34:33;;;;;;;;;;;;;;;7.40;100.00;97719.53;4858087;29;20288;-89
2024/03/29 18:37:01;;;;;;;;;;;;;;;7.42;100.00;97716.78;4859351;29;20007;-90
2024/03/29 18:39:26;;;;;;;;;;;;;;;7.46;100.00;97720.91;4857856;29;20273;-82
2024/03/29 18:41:53;;;;;;;;;;;;;;;7.45;100.00;97719.19;4859061;29;19998;-84
2024/03/29 18:44:18;;;;;;;;;;;;;;;7.48;100.00;97721.66;4859482;29;20302;-88
2024/03/29 18:46:44;;;;;;;;;;;;;;;7.49;100.00;97720.72;4842300;29;19920;-82
2024/03/29 18:49:09;;;;;;;;;;;;;;;7.50;100.00;97725.06;4858873;29;19931;-86
2024/03/29 18:51:34;;;;;;;;;;;;;;;7.50;100.00;97730.31;4858770;29;19925;-81
2024/03/29 18:54:00;;;;;;;;;;;;;;;7.54;100.00;97726.53;4859409;29;20392;-83
2024/03/29 18:56:25;;;;;;;;;;;;;;;7.53;100.00;97731.91;4859079;29;19928;-82
2024/03/29 18:58:50;;;;;;;;;;;;;;;7.55;100.00;97736.13;4858783;29;20434;-89
2024/03/29 19:01:16;;;;;;;;;;;;;;;7.59;100.00;97736.78;4858806;29;19931;-86
2024/03/29 19:03:41;;;;;;;;;;;;;;;7.59;100.00;97740.25;4858140;29;19928;-89
2024/03/29 19:06:07;;;;;;;;;;;;;;;7.61;100.00;97740.16;4857422;29;19969;-87
2024/03/29 19:08:32;;;;;;;;;;;;;;;6.61;100.00;97741.03;4846786;29;20007;-87
2024/03/29 19:10:57;;;;;;;;;;;;;;;6.18;100.00;97729.44;4841945;29;19980;-87
2024/03/29 19:13:23;;;;;;;;;;;;;;;5.93;100.00;97726.47;4859002;29;19972;-83
2024/03/29 19:15:48;;;;;;;;;;;;;;;5.77;100.00;97723.88;4858880;29;19974;-83
2024/03/29 19:18:18;;;;;;;;;;;;;;;5.71;100.00;97721.56;4857516;29;20338;-87
2024/03/29 19:20:43;;;;;;;;;;;;;;;5.59;100.00;97723.94;4842596;29;19967;-89
2024/03/29 19:23:08;;;;;;;;;;;;;;;5.54;100.00;97717.28;4859183;29;19970;-86
2024/03/29 19:25:39;;;;;;;;;;;;;;;5.48;100.00;97730.75;4842563;29;19924;-83
2024/03/29 19:28:05;;;;;;;;;;;;;;;5.42;100.00;97722.25;4859488;29;19921;-87
2024/03/29 19:30:31;;;;;;;;;;;;;;;5.36;100.00;97721.75;4858405;29;20395;-83
2024/03/29 19:32:57;;;;;;;;;;;;;;;5.34;100.00;97715.72;4859009;29;19927;-83
2024/03/29 19:35:33;;;;;;;;;;;;;;;5.22;100.00;97718.09;4857250;29;19931;-86
2024/03/29 19:37:59;;;;;;;;;;;;;;;5.12;100.00;97724.75;4841641;29;19925;-90
2024/03/29 19:40:25;;;;;;;;;;;;;;;5.07;100.00;97729.41;4858168;29;19924;-88
2024/03/29 19:42:50;;;;;;;;;;;;;;;5.07;100.00;97718.91;4861213;29;19928;-84
2024/03/29 19:45:16;;;;;;;;;;;;;;;5.04;100.00;97719.06;4862651;29;19924;-84
2024/03/29 19:47:44;;;;;;;;;;;;;;;5.00;100.00;97723.63;4862041;29;20364;-84
2024/03/29 19:50:09;;;;;;;;;;;;;;;5.02;100.00;97723.56;4843818;29;19924;-87
2024/03/29 19:52:35;;;;;;;;;;;;;;;5.00;100.00;97722.81;4860893;29;19928;-88
2024/03/29 19:55:05;;;;;;;;;;;;;;;4.88;100.00;97719.03;4862524;29;20276;-90
2024/03/29 19:57:30;;;;;;;;;;;;;;;4.91;100.00;97714.50;4860692;29;19999;-89
2024/03/29 19:59:55;;;;;;;;;;;;;;;4.89;100.00;97715.50;4861890;29;20051;-84
2024/03/29 20:02:21;;;;;;;;;;;;;;;4.97;100.00;97708.06;4862122;29;19972;-90
2024/03/29 20:04:46;;;;;;;;;;;;;;;4.90;100.00;97704.91;4860253;29;20384;-86
2024/03/29 20:07:11;;;;;;;;;;;;;;;4.89;100.00;97700.59;4844733;29;19990;-84
2024/03/29 20:09:37;;;;;;;;;;;;;;;4.82;100.00;97704.47;4861899;29;19927;-83
2024/03/29 20:12:02;;;;;;;;;;;;;;;4.77;100.00;97706.50;4861902;29;19943;-80
2024/03/29 20:14:29;;;;;;;;;;;;;;;4.76;100.00;97696.91;4861799;29;19924;-86
2024/03/29 20:16:55;;;;;;;;;;;;;;;4.74;100.00;97701.41;4861747;29;20308;-85
2024/03/29 20:19:26;;;;;;;;;;;;;;;4.75;100.00;97689.97;4860886;29;19928;-88
2024/03/29 20:21:52;;;;;;;;;;;;;;;4.75;100.00;97687.34;4851152;29;20352;-81
2024/03/29 20:24:17;;;;;;;;;;;;;;;4.67;100.00;97686.91;4862073;29;19927;-85
2024/03/29 20:26:46;;;;;;;;;;;;;;;4.61;100.00;97685.47;4860584;29;20356;-84
2024/03/29 20:29:11;;;;;;;;;;;;;;;4.63;100.00;97670.47;4845730;29;20265;-81
2024/03/29 20:31:38;;;;;;;;;;;;;;;4.57;100.00;97677.81;4861943;29;19935;-81
2024/03/29 20:34:03;;;;;;;;;;;;;;;4.51;100.00;97677.19;4859544;29;20034;-80
2024/03/29 20:36:28;;;;;;;;;;;;;;;4.47;100.00;97682.72;4861434;29;19946;-84
2024/03/29 20:38:57;;;;;;;;;;;;;;;4.58;100.00;97664.63;4860910;23;20374;-83
2024/03/29 20:41:23;;;;;;;;;;;;;;;4.51;100.00;97666.69;4906968;29;19947;-82
2024/03/29 20:43:48;;;;;;;;;;;;;;;4.36;100.00;97670.97;4907155;29;20371;-87
2024/03/29 20:46:13;;;;;;;;;;;;;;;4.47;100.00;97673.06;4908633;29;20052;-89
2024/03/29 20:48:38;;;;;;;;;;;;;;;4.46;100.00;97671.34;4890872;29;19962;-84
2024/03/29 20:51:04;;;;;;;;;;;;;;;4.43;100.00;97666.25;4907781;29;19919;-87
2024/03/29 20:53:29;;;;;;;;;;;;;;;4.38;100.00;97667.44;4907712;29;19927;-82
2024/03/29 20:56:29;;;;;;;;;;;;;;;4.37;100.00;97679.69;4908491;29;20370;-90
2024/03/29 20:58:55;;;;;;;;;;;;;;;4.43;100.00;97666.25;4907850;29;20014;-84
2024/03/29 21:06:49;;;;;;;;;;;;;;;4.32;100.00;97669.47;4908168;29;19977;-90
2024/03/29 21:09:26;;;;;;;;;;;;;;;4.32;100.00;97674.69;4908637;29;19966;-86
2024/03/29 21:11:53;;;;;;;;;;;;;;;4.34;100.00;97667.59;4914378;29;19928;-84
2024/03/29 21:14:19;;;;;;;;;;;;;;;4.33;100.00;97671.13;4907617;29;19946;-81
2024/03/29 21:16:50;;;;;;;;;;;;;;;4.33;100.00;97672.91;4907878;29;20027;-92
2024/03/29 21:19:17;;;;;;;;;;;;;;;4.22;100.00;97688.34;4908003;29;19923;-83
2024/03/29 21:21:44;;;;;;;;;;;;;;;4.22;100.00;97693.59;4908008;29;19949;-86
2024/03/29 21:24:17;;;;;;;;;;;;;;;4.28;100.00;97682.78;4908356;29;19934;-88
2024/03/29 21:26:45;;;;;;;;;;;;;;;4.25;100.00;97688.19;4889480;29;20252;-88
2024/03/29 21:29:12;;;;;;;;;;;;;;;4.20;100.00;97688.41;4907664;29;19923;-81
2024/03/29 21:31:39;;;;;;;;;;;;;;;4.14;100.00;97681.69;4904392;29;19931;-87
2024/03/29 21:34:16;;;;;;;;;;;;;;;4.19;100.00;97684.94;4905685;29;19950;-83
2024/03/29 21:36:51;;;;;;;;;;;;;;;4.23;100.00;97692.66;4907420;29;19923;-83
2024/03/29 21:39:38;;;;;;;;;;;;;;;4.21;100.00;97681.41;4908728;29;20010;-87
2024/03/29 21:42:06;;;;;;;;;;;;;;;4.19;100.00;97684.09;4905739;29;19938;-81
2024/03/29 21:44:36;;;;;;;;;;;;;;;4.17;100.00;97683.34;4907325;29;19984;-87
2024/03/29 21:47:11;;;;;;;;;;;;;;;4.19;100.00;97684.94;4903854;29;20002;-93
2024/03/29 21:49:37;;;;;;;;;;;;;;;4.35;100.00;97687.63;4904641;29;19926;-92
2024/03/29 21:52:02;;;;;;;;;;;;;;;4.32;100.00;97676.44;4910257;29;19931;-87
2024/03/29 21:54:30;;;;;;;;;;;;;;;4.24;100.00;97676.00;4905810;29;20307;-88
2024/03/29 21:56:59;;;;;;;;;;;;;;;4.43;100.00;97678.53;4906579;29;19930;-93
2024/03/29 21:59:33;;;;;;;;;;;;;;;4.27;100.00;97678.47;4907388;29;19959;-90
2024/03/29 22:01:58;;;;;;;;;;;;;;;4.22;100.00;97683.09;4907682;29;20357;-80
2024/03/29 22:04:26;;;;;;;;;;;;;;;4.24;100.00;97686.50;4905275;29;20018;-88
2024/03/29 22:06:56;;;;;;;;;;;;;;;4.21;100.00;97684.00;4889561;29;19920;-86
2024/03/29 22:09:22;;;;;;;;;;;;;;;4.38;100.00;97678.75;4907870;29;20018;-88
2024/03/29 22:11:47;;;;;;;;;;;;;;;4.43;100.00;97681.16;4906754;29;20410;-83
2024/03/29 22:14:13;;;;;;;;;;;;;;;4.42;100.00;97674.19;4906116;29;20295;-83
2024/03/29 22:16:38;;;;;;;;;;;;;;;4.27;100.00;97667.97;4907184;29;19923;-78
2024/03/29 22:19:03;;;;;;;;;;;;;;;4.34;100.00;97674.59;4906669;29;19934;-83
2024/03/29 22:21:30;;;;;;;;;;;;;;;4.47;100.00;97670.44;4906801;29;20018;-86
2024/03/29 22:23:55;;;;;;;;;;;;;;;4.23;100.00;97669.91;4899180;29;19937;-80
2024/03/29 22:26:20;;;;;;;;;;;;;;;4.23;100.00;97669.91;4906297;29;20295;-81
2024/03/29 22:28:46;;;;;;;;;;;;;;;4.42;100.00;97682.06;4906169;29;19923;-87
2024/03/29 22:31:14;;;;;;;;;;;;;;;4.30;100.00;97668.66;4904829;29;19923;-88
2024/03/29 22:33:40;;;;;;;;;;;;;;;4.21;100.00;97670.91;4904178;29;19923;-90
2024/03/29 22:36:05;;;;;;;;;;;;;;;4.15;100.00;97680.78;4888989;29;19975;-85
2024/03/29 22:38:30;;;;;;;;;;;;;;;4.22;100.00;97677.84;4906211;29;19931;-86
2024/03/29 22:40:56;;;;;;;;;;;;;;;4.16;100.00;97687.75;4906479;29;19931;-91
2024/03/29 22:43:24;;;;;;;;;;;;;;;4.12;100.00;97682.72;4906977;29;19981;-88
2024/03/29 22:45:50;;;;;;;;;;;;;;;4.19;100.00;97684.94;4905290;29;19927;-86
2024/03/29 22:48:24;;;;;;;;;;;;;;;4.11;100.00;97671.38;4906027;29;20278;-87
2024/03/29 22:50:50;;;;;;;;;;;;;;;4.18;100.00;97674.56;4888985;29;19934;-83
2024/03/29 22:53:15;;;;;;;;;;;;;;;4.33;100.00;97676.38;4906393;29;19923;-82
2024/03/29 22:55:40;;;;;;;;;;;;;;;4.93;100.00;97666.31;4907056;29;19920;-80
2024/03/29 22:58:06;;;;;;;;;;;;;;;5.30;100.00;97666.91;4888758;29;19928;-92
2024/03/29 23:00:31;;;;;;;;;;;;;;;5.56;100.00;97671.56;4891730;29;19952;-87
2024/03/29 23:03:04;;;;;;;;;;;;;;;5.73;100.00;97675.06;4906525;29;19958;-83
2024/03/29 23:05:29;;;;;;;;;;;;;;;5.88;100.00;97671.53;4904298;29;19928;-86
2024/03/29 23:08:23;;;;;;;;;;;;;;;5.99;100.00;97666.53;4906552;29;20302;-91
2024/03/29 23:10:52;;;;;;;;;;;;;;;6.13;100.00;97670.16;4887745;29;19927;-88
2024/03/29 23:13:17;;;;;;;;;;;;;;;6.21;100.00;97673.19;4906568;29;20007;-86
2024/03/29 23:15:57;;;;;;;;;;;;;;;6.29;100.00;97683.25;4902757;29;20383;-91
2024/03/29 23:18:22;;;;;;;;;;;;;;;6.40;100.00;97679.97;4908979;29;19923;-87
2024/03/29 23:20:51;;;;;;;;;;;;;;;6.45;100.00;97681.41;4910473;29;20010;-87
2024/03/29 23:23:16;;;;;;;;;;;;;;;6.52;100.00;97671.34;4893938;29;20339;-86